Big Bend, West Virginia
Current Conditions -  °F | °C
As of 11:53 PM on Monday 22 Dec 2014 (Local Time) from KPKB Reporting Station
Overcast Overcast  
Wind Chill: 44°   Ceiling: 8000
Heat Index: 46°   Visibility: 10mi
Dew Point: 41°   Wind: 5mph
Humidity: 83%   Direction: 120°ESE
Pressure: 29.89"   Gusts: NA
Location:  38.97°N, 81.16°W
Report Text: KPKB 230453Z AUTO 12004KT 10SM BKN080 OVC090 08/05 A2989 RMK AO2 RAB08E44 SLP123 P0000 T00780050 401281033
Loading
Personal Weather Stations






























Interactive Weather Map New forecast layout! Learn more

10-Day Weather Forecast

Advertisements
Track Severe Weather on mobile